Time;durP1;ratioP1;P1;durP2;ratioP2;P2;SDS_P1;SDS_P2;PMS_P1;PMS_P2;Temp;Humidity;BMP_temperature;BMP_pressure;BME280_temperature;BME280_humidity;BME280_pressure;Samples;Min_cycle;Max_cycle;Signal;HPM_P1;HPM_P2
2022/01/04 00:01:42;;;;;;;30.40;3.78;;;;;;;;;;5000961;28;20521;-73
2022/01/04 00:04:08;;;;;;;42.85;5.18;;;;;;;;;;4984209;28;20054;-73
2022/01/04 00:06:34;;;;;;;33.72;4.30;;;;;;;;;;4977645;28;20031;-72
2022/01/04 00:09:03;;;;;;;38.55;5.80;;;;;;;;;;5008030;28;20048;-72
2022/01/04 00:11:45;;;;;;;30.50;4.60;;;;;;;;;;4999990;28;20034;-72
2022/01/04 00:14:12;;;;;;;43.38;6.80;;;;;;;;;;5010654;28;20467;-73
2022/01/04 00:16:38;;;;;;;29.50;4.30;;;;;;;;;;5001542;28;20034;-73
2022/01/04 00:19:04;;;;;;;30.58;3.63;;;;;;;;;;5009059;28;20056;-73
2022/01/04 00:21:30;;;;;;;37.72;5.05;;;;;;;;;;4998523;28;20041;-73
2022/01/04 00:23:56;;;;;;;30.77;5.38;;;;;;;;;;5005065;28;20443;-73
2022/01/04 00:26:22;;;;;;;36.97;5.47;;;;;;;;;;4979485;28;20036;-73
2022/01/04 00:28:48;;;;;;;38.65;5.00;;;;;;;;;;4982106;28;20045;-72
2022/01/04 00:31:14;;;;;;;38.33;3.90;;;;;;;;;;4998191;28;20034;-72
2022/01/04 00:33:40;;;;;;;30.15;4.35;;;;;;;;;;5008667;28;20030;-72
2022/01/04 00:36:06;;;;;;;38.53;4.82;;;;;;;;;;5001772;28;20049;-73
2022/01/04 00:38:33;;;;;;;40.13;4.32;;;;;;;;;;5003147;28;20564;-72
2022/01/04 00:40:59;;;;;;;33.20;3.85;;;;;;;;;;4999909;28;20034;-72
2022/01/04 00:43:25;;;;;;;30.58;3.90;;;;;;;;;;4996920;28;20029;-73
2022/01/04 00:45:53;;;;;;;45.38;7.00;;;;;;;;;;5001184;28;20035;-74
2022/01/04 00:50:45;;;;;;;41.20;6.85;;;;;;;;;;5001343;28;20034;-73
2022/01/04 00:53:12;;;;;;;29.20;3.30;;;;;;;;;;4977540;28;20066;-73
2022/01/04 00:55:38;;;;;;;27.60;3.97;;;;;;;;;;4998959;28;20101;-73
2022/01/04 00:58:05;;;;;;;40.83;4.97;;;;;;;;;;5001523;28;20058;-72
2022/01/04 01:00:32;;;;;;;32.72;3.97;;;;;;;;;;5008350;28;20445;-72
2022/01/04 01:02:58;;;;;;;52.63;5.35;;;;;;;;;;4999266;28;20474;-72
2022/01/04 01:05:26;;;;;;;28.90;4.28;;;;;;;;;;5003074;28;20539;-73
2022/01/04 01:07:52;;;;;;;38.00;5.68;;;;;;;;;;4998876;28;20026;-73
2022/01/04 01:13:03;;;;;;;31.05;4.53;;;;;;;;;;5001437;28;20712;-73
2022/01/04 01:15:30;;;;;;;38.65;5.43;;;;;;;;;;5001412;28;20049;-72
2022/01/04 01:17:56;;;;;;;37.40;5.22;;;;;;;;;;5002861;28;20502;-72
2022/01/04 01:20:22;;;;;;;37.28;5.13;;;;;;;;;;4985602;28;20508;-72
2022/01/04 01:22:48;;;;;;;35.15;4.68;;;;;;;;;;5002234;28;20543;-72
2022/01/04 01:25:15;;;;;;;39.83;6.20;;;;;;;;;;5001791;28;20030;-72
2022/01/04 01:27:41;;;;;;;40.67;5.47;;;;;;;;;;5002301;28;20088;-72
2022/01/04 01:30:08;;;;;;;39.08;6.25;;;;;;;;;;4971956;28;20188;-73
2022/01/04 01:32:34;;;;;;;33.50;6.80;;;;;;;;;;5005873;28;20073;-72
2022/01/04 01:35:00;;;;;;;33.65;4.38;;;;;;;;;;5000101;28;20030;-72
2022/01/04 01:37:27;;;;;;;30.65;5.15;;;;;;;;;;4997028;28;20154;-72
2022/01/04 01:39:53;;;;;;;36.28;5.22;;;;;;;;;;4973301;28;20374;-72
2022/01/04 01:42:19;;;;;;;31.25;4.32;;;;;;;;;;4998360;28;20165;-72
2022/01/04 01:44:46;;;;;;;35.70;5.28;;;;;;;;;;5000188;28;20044;-72
2022/01/04 01:47:12;;;;;;;44.25;6.25;;;;;;;;;;4998588;28;20089;-72
2022/01/04 01:49:39;;;;;;;33.53;5.30;;;;;;;;;;4999655;28;20253;-73
2022/01/04 01:52:05;;;;;;;52.20;5.40;;;;;;;;;;5003901;28;20049;-73
2022/01/04 01:54:31;;;;;;;36.67;6.10;;;;;;;;;;4999602;28;20041;-73
2022/01/04 01:56:57;;;;;;;40.95;5.57;;;;;;;;;;5007799;28;20037;-72
2022/01/04 01:59:23;;;;;;;42.00;5.25;;;;;;;;;;5002044;28;20043;-72
2022/01/04 02:01:51;;;;;;;36.88;5.78;;;;;;;;;;5005290;28;20044;-72
2022/01/04 02:04:17;;;;;;;32.05;5.10;;;;;;;;;;4999852;28;20014;-72
2022/01/04 02:06:43;;;;;;;39.50;4.45;;;;;;;;;;4984528;28;20052;-72
2022/01/04 02:09:09;;;;;;;49.13;7.47;;;;;;;;;;4998269;28;20038;-73
2022/01/04 02:11:35;;;;;;;31.38;5.35;;;;;;;;;;5001992;28;20436;-72
2022/01/04 02:14:02;;;;;;;36.08;5.15;;;;;;;;;;4983642;28;20088;-72
2022/01/04 02:16:29;;;;;;;32.20;5.05;;;;;;;;;;4998768;28;20105;-73
2022/01/04 02:19:02;;;;;;;52.25;6.35;;;;;;;;;;5003596;28;20173;-72
2022/01/04 02:21:29;;;;;;;38.40;5.53;;;;;;;;;;4997642;28;20023;-72
2022/01/04 02:23:55;;;;;;;33.90;4.35;;;;;;;;;;5006392;28;20129;-72
2022/01/04 02:26:21;;;;;;;39.58;5.45;;;;;;;;;;4998452;28;20042;-72
2022/01/04 02:28:48;;;;;;;36.05;4.95;;;;;;;;;;5006938;28;20401;-72
2022/01/04 02:31:14;;;;;;;37.88;5.35;;;;;;;;;;4998943;28;20045;-72
2022/01/04 02:33:40;;;;;;;36.90;5.40;;;;;;;;;;5007358;28;20597;-72
2022/01/04 02:36:06;;;;;;;38.95;4.75;;;;;;;;;;5004259;28;20484;-72
2022/01/04 02:38:33;;;;;;;29.63;4.53;;;;;;;;;;4997934;28;20089;-72
2022/01/04 02:40:59;;;;;;;42.75;5.35;;;;;;;;;;5002106;28;20530;-72
2022/01/04 02:43:25;;;;;;;41.53;5.57;;;;;;;;;;5005910;28;20034;-72
2022/01/04 02:45:51;;;;;;;40.65;6.47;;;;;;;;;;5003146;28;20022;-73
2022/01/04 02:48:17;;;;;;;47.72;6.60;;;;;;;;;;4987235;28;20061;-73
2022/01/04 02:50:43;;;;;;;34.58;5.43;;;;;;;;;;5004425;28;20037;-72
2022/01/04 02:53:09;;;;;;;41.72;5.00;;;;;;;;;;4987627;28;20042;-73
2022/01/04 02:55:36;;;;;;;31.55;5.18;;;;;;;;;;5001818;28;20038;-73
2022/01/04 02:58:02;;;;;;;32.13;5.05;;;;;;;;;;4996055;28;20055;-73
2022/01/04 03:00:28;;;;;;;41.50;4.90;;;;;;;;;;5002524;28;20101;-73
2022/01/04 03:02:54;;;;;;;40.33;5.28;;;;;;;;;;4998833;28;20068;-72
2022/01/04 03:05:20;;;;;;;43.03;7.63;;;;;;;;;;5003120;28;20491;-73
2022/01/04 03:07:46;;;;;;;44.75;5.55;;;;;;;;;;5008680;28;20496;-73
2022/01/04 03:10:13;;;;;;;38.50;5.05;;;;;;;;;;4984226;28;20392;-72
2022/01/04 03:12:42;;;;;;;39.80;4.78;;;;;;;;;;4999171;28;20097;-73
2022/01/04 03:15:08;;;;;;;34.53;4.53;;;;;;;;;;5005718;28;20121;-72
2022/01/04 03:17:34;;;;;;;51.20;5.82;;;;;;;;;;4986207;28;20175;-72
2022/01/04 03:20:00;;;;;;;27.33;4.13;;;;;;;;;;5006574;28;20503;-72
2022/01/04 03:22:26;;;;;;;37.13;5.10;;;;;;;;;;5003821;28;20038;-73
2022/01/04 03:24:53;;;;;;;28.02;4.32;;;;;;;;;;5001183;28;20061;-72
2022/01/04 03:27:19;;;;;;;41.42;5.65;;;;;;;;;;5001026;28;20137;-73
2022/01/04 03:29:45;;;;;;;37.08;5.07;;;;;;;;;;5002924;28;20125;-73
2022/01/04 03:32:11;;;;;;;42.38;5.45;;;;;;;;;;5002698;28;20030;-73
2022/01/04 03:34:37;;;;;;;36.00;5.55;;;;;;;;;;5005890;28;20038;-72
2022/01/04 03:37:04;;;;;;;44.22;5.07;;;;;;;;;;5002592;28;20030;-72
2022/01/04 03:39:30;;;;;;;41.35;4.22;;;;;;;;;;5009386;28;20047;-72
2022/01/04 03:41:56;;;;;;;44.97;6.63;;;;;;;;;;5003634;28;20089;-72
2022/01/04 03:44:22;;;;;;;36.22;4.45;;;;;;;;;;4996199;28;20026;-72
2022/01/04 03:46:49;;;;;;;35.92;6.20;;;;;;;;;;5006803;28;20108;-72
2022/01/04 03:49:15;;;;;;;46.28;5.63;;;;;;;;;;4989955;28;20031;-72
2022/01/04 03:51:41;;;;;;;42.28;5.85;;;;;;;;;;5005010;28;20046;-72
2022/01/04 03:54:07;;;;;;;32.47;4.35;;;;;;;;;;5004623;28;20395;-72
2022/01/04 03:56:33;;;;;;;41.08;5.18;;;;;;;;;;5009929;28;20079;-72
2022/01/04 03:59:00;;;;;;;38.50;6.40;;;;;;;;;;5001050;28;20030;-72
2022/01/04 04:01:26;;;;;;;45.90;5.53;;;;;;;;;;5005444;28;20052;-72
2022/01/04 04:03:52;;;;;;;43.85;5.38;;;;;;;;;;5002265;28;20026;-72
2022/01/04 04:06:18;;;;;;;42.05;7.15;;;;;;;;;;4983496;28;20031;-72
2022/01/04 04:08:44;;;;;;;29.02;5.32;;;;;;;;;;4998909;28;20523;-72
2022/01/04 04:11:11;;;;;;;31.77;5.07;;;;;;;;;;4998444;28;21407;-72
2022/01/04 04:13:37;;;;;;;41.53;7.78;;;;;;;;;;5007738;28;20475;-72
2022/01/04 04:16:03;;;;;;;42.20;7.07;;;;;;;;;;5001600;28;20272;-72
2022/01/04 04:18:29;;;;;;;36.35;5.10;;;;;;;;;;5010438;28;20034;-72
2022/01/04 04:20:55;;;;;;;46.17;5.32;;;;;;;;;;4999698;28;20048;-72
2022/01/04 04:23:22;;;;;;;33.97;4.38;;;;;;;;;;4985792;28;20047;-72
2022/01/04 04:25:48;;;;;;;38.70;4.90;;;;;;;;;;5000549;28;20604;-72
2022/01/04 04:28:14;;;;;;;47.90;6.10;;;;;;;;;;5009942;28;20034;-72
2022/01/04 04:30:40;;;;;;;36.47;5.15;;;;;;;;;;4999612;28;20389;-72
2022/01/04 04:33:06;;;;;;;40.67;5.43;;;;;;;;;;5008002;28;20044;-72
2022/01/04 04:35:32;;;;;;;38.42;4.97;;;;;;;;;;5004125;28;20351;-72
2022/01/04 04:37:59;;;;;;;45.33;5.57;;;;;;;;;;4996384;28;20560;-73
2022/01/04 04:40:25;;;;;;;35.20;7.13;;;;;;;;;;5005091;28;20030;-74
2022/01/04 04:42:51;;;;;;;47.03;5.35;;;;;;;;;;5001359;28;20884;-74
2022/01/04 04:45:17;;;;;;;41.10;5.95;;;;;;;;;;4972703;28;20034;-74
2022/01/04 04:47:43;;;;;;;49.90;5.35;;;;;;;;;;5000469;28;20033;-73
2022/01/04 04:50:09;;;;;;;38.58;6.28;;;;;;;;;;5009215;28;20074;-73
2022/01/04 04:52:36;;;;;;;42.72;5.88;;;;;;;;;;4985123;28;20042;-73
2022/01/04 04:55:03;;;;;;;40.42;6.35;;;;;;;;;;5001928;28;20033;-73
2022/01/04 04:57:29;;;;;;;37.40;5.80;;;;;;;;;;4984851;28;20117;-74
2022/01/04 04:59:55;;;;;;;37.88;5.53;;;;;;;;;;4982153;28;20041;-73
2022/01/04 05:02:21;;;;;;;29.85;6.18;;;;;;;;;;5003606;28;20042;-73
2022/01/04 05:04:47;;;;;;;44.05;6.80;;;;;;;;;;4983495;28;20030;-73
2022/01/04 05:07:13;;;;;;;33.58;5.75;;;;;;;;;;4986640;28;20038;-73
2022/01/04 05:09:39;;;;;;;33.20;5.25;;;;;;;;;;4999201;28;20438;-73
2022/01/04 05:12:06;;;;;;;44.70;6.82;;;;;;;;;;5001776;28;20030;-73
2022/01/04 05:14:32;;;;;;;49.17;6.90;;;;;;;;;;4984417;28;20037;-73
2022/01/04 05:16:58;;;;;;;32.40;6.43;;;;;;;;;;5004194;28;20117;-73
2022/01/04 05:19:24;;;;;;;37.70;6.32;;;;;;;;;;5003371;28;20045;-73
2022/01/04 05:21:50;;;;;;;33.80;6.97;;;;;;;;;;4996626;28;20038;-73
2022/01/04 05:24:16;;;;;;;49.17;9.25;;;;;;;;;;5008588;28;20093;-73
2022/01/04 05:26:42;;;;;;;59.08;7.55;;;;;;;;;;4999829;28;20030;-74
2022/01/04 05:29:08;;;;;;;36.78;6.75;;;;;;;;;;5008525;28;20037;-74
2022/01/04 05:31:34;;;;;;;41.17;7.15;;;;;;;;;;4999457;28;20109;-74
2022/01/04 05:34:00;;;;;;;39.33;7.15;;;;;;;;;;5000988;28;20038;-74
2022/01/04 05:36:27;;;;;;;30.00;6.38;;;;;;;;;;5000331;28;20449;-73
2022/01/04 05:38:53;;;;;;;43.85;6.70;;;;;;;;;;5011659;28;20569;-74
2022/01/04 05:41:19;;;;;;;41.45;8.10;;;;;;;;;;4984925;28;20041;-73
2022/01/04 05:43:47;;;;;;;35.78;6.78;;;;;;;;;;4999098;28;20116;-75
2022/01/04 05:46:13;;;;;;;38.22;6.93;;;;;;;;;;4999060;28;20033;-74
2022/01/04 05:48:39;;;;;;;39.33;6.90;;;;;;;;;;5000243;28;20029;-74
2022/01/04 05:51:05;;;;;;;53.85;6.95;;;;;;;;;;5001814;28;20037;-74
2022/01/04 05:53:33;;;;;;;31.27;7.10;;;;;;;;;;4998574;28;20045;-73
2022/01/04 05:55:59;;;;;;;40.83;6.80;;;;;;;;;;4997016;28;20061;-74
2022/01/04 05:58:26;;;;;;;123.22;52.35;;;;;;;;;;4999863;28;20025;-76
2022/01/04 06:00:52;;;;;;;43.20;7.93;;;;;;;;;;4984557;28;20029;-77
2022/01/04 06:03:18;;;;;;;42.65;7.72;;;;;;;;;;4993811;28;20034;-74
2022/01/04 06:05:44;;;;;;;39.58;6.82;;;;;;;;;;4999194;28;20113;-74
2022/01/04 06:08:11;;;;;;;42.15;6.32;;;;;;;;;;4980361;28;20468;-74
2022/01/04 06:10:40;;;;;;;46.40;6.30;;;;;;;;;;4999518;28;20117;-74
2022/01/04 06:15:33;;;;;;;45.90;8.02;;;;;;;;;;4998966;28;20038;-74
2022/01/04 06:17:59;;;;;;;50.75;7.10;;;;;;;;;;5003420;28;20025;-74
2022/01/04 06:20:27;;;;;;;51.22;7.65;;;;;;;;;;5007202;28;20038;-73
2022/01/04 06:22:54;;;;;;;46.10;7.95;;;;;;;;;;5003071;28;20141;-73
2022/01/04 06:25:21;;;;;;;35.55;7.00;;;;;;;;;;5004407;28;20018;-73
2022/01/04 06:27:53;;;;;;;36.08;7.30;;;;;;;;;;4982802;28;20121;-73
2022/01/04 06:30:19;;;;;;;47.33;6.50;;;;;;;;;;4999679;28;20034;-73
2022/01/04 06:32:46;;;;;;;57.60;21.83;;;;;;;;;;5003255;28;20062;-77
2022/01/04 06:35:13;;;;;;;41.53;11.55;;;;;;;;;;5002454;28;20025;-76
2022/01/04 06:37:41;;;;;;;25.00;4.80;;;;;;;;;;5011370;28;20439;-74
2022/01/04 06:40:07;;;;;;;32.90;5.68;;;;;;;;;;5002435;28;20060;-75
2022/01/04 06:42:33;;;;;;;34.55;6.53;;;;;;;;;;5000357;28;20073;-74
2022/01/04 06:44:59;;;;;;;28.35;5.22;;;;;;;;;;5009167;28;20030;-75
2022/01/04 06:47:25;;;;;;;24.83;5.05;;;;;;;;;;4979519;28;20039;-74
2022/01/04 06:49:51;;;;;;;40.83;6.35;;;;;;;;;;5008315;28;20050;-74
2022/01/04 06:52:17;;;;;;;32.15;5.90;;;;;;;;;;5005367;28;20466;-76
2022/01/04 06:54:43;;;;;;;33.95;5.90;;;;;;;;;;4997482;28;20112;-74
2022/01/04 06:57:10;;;;;;;30.02;6.97;;;;;;;;;;4997744;28;20046;-74
2022/01/04 06:59:36;;;;;;;42.88;6.57;;;;;;;;;;5001318;28;20388;-75
2022/01/04 07:02:02;;;;;;;42.25;7.38;;;;;;;;;;4996538;28;20018;-76
2022/01/04 07:04:28;;;;;;;30.25;7.28;;;;;;;;;;4979765;28;20082;-75
2022/01/04 07:06:54;;;;;;;29.05;6.70;;;;;;;;;;5001675;28;20026;-75
2022/01/04 07:09:20;;;;;;;49.40;7.57;;;;;;;;;;5000891;28;20046;-74
2022/01/04 07:11:46;;;;;;;44.45;8.60;;;;;;;;;;5007258;28;20034;-74
2022/01/04 07:14:12;;;;;;;39.15;8.98;;;;;;;;;;5004015;28;20030;-74
2022/01/04 07:16:38;;;;;;;37.55;8.88;;;;;;;;;;4988096;28;20042;-74
2022/01/04 07:19:04;;;;;;;56.50;9.32;;;;;;;;;;5003367;28;20067;-74
2022/01/04 07:21:30;;;;;;;35.42;8.70;;;;;;;;;;4989024;28;20828;-74
2022/01/04 07:23:57;;;;;;;42.28;10.15;;;;;;;;;;5003548;28;20054;-73
2022/01/04 07:26:24;;;;;;;41.78;8.95;;;;;;;;;;5004952;28;20542;-73
2022/01/04 07:28:51;;;;;;;33.20;7.55;;;;;;;;;;5000467;28;20042;-73
2022/01/04 07:31:17;;;;;;;47.92;7.45;;;;;;;;;;5000147;28;20700;-73
2022/01/04 07:33:45;;;;;;;40.80;7.72;;;;;;;;;;4995317;28;20513;-73
2022/01/04 07:36:11;;;;;;;45.58;8.57;;;;;;;;;;5003555;28;20042;-73
2022/01/04 07:38:38;;;;;;;35.67;7.43;;;;;;;;;;5006197;28;20091;-73
2022/01/04 07:41:05;;;;;;;35.55;6.30;;;;;;;;;;5005920;28;20041;-73
2022/01/04 07:43:31;;;;;;;36.90;6.55;;;;;;;;;;5006382;28;20029;-73
2022/01/04 07:45:57;;;;;;;28.55;5.30;;;;;;;;;;5002449;28;20487;-73
2022/01/04 07:48:23;;;;;;;26.08;5.13;;;;;;;;;;5001311;28;20018;-73
2022/01/04 07:50:50;;;;;;;26.67;4.57;;;;;;;;;;5020876;28;20168;-73
2022/01/04 07:53:16;;;;;;;30.25;5.32;;;;;;;;;;4991097;28;20076;-73
2022/01/04 07:55:43;;;;;;;23.17;5.03;;;;;;;;;;5006848;28;20523;-73
2022/01/04 07:58:09;;;;;;;27.73;5.55;;;;;;;;;;4985667;28;20033;-73
2022/01/04 08:00:35;;;;;;;20.88;4.95;;;;;;;;;;5005098;28;20034;-73
2022/01/04 08:03:03;;;;;;;21.75;5.43;;;;;;;;;;5004387;28;20034;-73
2022/01/04 08:05:29;;;;;;;22.48;5.18;;;;;;;;;;4984802;28;20033;-73
2022/01/04 08:07:55;;;;;;;26.73;7.70;;;;;;;;;;5001470;28;20035;-73
2022/01/04 08:10:21;;;;;;;22.48;4.72;;;;;;;;;;4974419;28;20049;-73
2022/01/04 08:12:47;;;;;;;20.25;4.93;;;;;;;;;;5008787;28;20025;-73
2022/01/04 08:15:13;;;;;;;19.35;5.00;;;;;;;;;;5002291;28;20061;-73
2022/01/04 08:17:40;;;;;;;25.30;4.95;;;;;;;;;;5003029;28;20030;-73
2022/01/04 08:20:07;;;;;;;30.55;4.47;;;;;;;;;;5003117;28;20029;-72
2022/01/04 08:22:34;;;;;;;18.27;3.83;;;;;;;;;;5008643;28;20031;-73
2022/01/04 08:25:02;;;;;;;23.30;3.28;;;;;;;;;;5002437;28;20030;-73
2022/01/04 08:27:28;;;;;;;24.15;4.00;;;;;;;;;;5006305;28;20101;-73
2022/01/04 08:29:55;;;;;;;16.42;2.85;;;;;;;;;;5004602;28;20038;-73
2022/01/04 08:32:21;;;;;;;20.00;3.95;;;;;;;;;;5006112;28;20662;-73
2022/01/04 08:34:47;;;;;;;16.65;2.85;;;;;;;;;;4998890;28;20026;-73
2022/01/04 08:37:13;;;;;;;18.52;4.03;;;;;;;;;;4999663;28;20072;-73
2022/01/04 08:39:39;;;;;;;22.13;4.35;;;;;;;;;;4998949;28;20418;-73
2022/01/04 08:42:05;;;;;;;31.52;5.65;;;;;;;;;;5000393;28;20046;-73
2022/01/04 08:44:33;;;;;;;18.42;4.63;;;;;;;;;;5005770;28;20148;-73
2022/01/04 08:46:59;;;;;;;16.80;2.78;;;;;;;;;;5000953;28;20719;-73
2022/01/04 08:49:25;;;;;;;17.83;3.60;;;;;;;;;;5004302;28;20069;-73
2022/01/04 08:51:52;;;;;;;9.88;1.83;;;;;;;;;;5000340;28;20030;-73
2022/01/04 08:54:18;;;;;;;14.05;1.80;;;;;;;;;;5009881;28;20468;-73
2022/01/04 08:56:44;;;;;;;8.65;1.33;;;;;;;;;;5000932;28;20037;-74
2022/01/04 08:59:13;;;;;;;11.02;1.80;;;;;;;;;;5006581;28;20057;-73
2022/01/04 09:01:40;;;;;;;9.18;1.20;;;;;;;;;;5002305;28;20076;-73
2022/01/04 09:04:09;;;;;;;13.05;1.70;;;;;;;;;;4983766;28;20396;-73
2022/01/04 09:06:35;;;;;;;10.10;2.95;;;;;;;;;;4998016;28;20053;-73
2022/01/04 09:09:01;;;;;;;11.52;2.45;;;;;;;;;;4994773;28;20372;-73
2022/01/04 09:11:27;;;;;;;9.15;1.58;;;;;;;;;;5006203;28;20034;-73
2022/01/04 09:19:38;;;;;;;4.70;1.40;;;;;;;;;;5001656;28;20522;-73
2022/01/04 09:22:05;;;;;;;4.30;0.93;;;;;;;;;;5006461;28;20069;-73
2022/01/04 09:24:31;;;;;;;5.05;1.00;;;;;;;;;;5004925;28;20038;-73
2022/01/04 09:26:57;;;;;;;8.00;0.90;;;;;;;;;;4976907;28;20109;-73
2022/01/04 09:29:24;;;;;;;7.70;0.70;;;;;;;;;;5004406;28;20125;-73
2022/01/04 09:31:50;;;;;;;6.22;0.65;;;;;;;;;;5003766;28;20180;-73
2022/01/04 09:34:17;;;;;;;15.60;1.70;;;;;;;;;;5007100;28;20049;-73
2022/01/04 09:36:44;;;;;;;7.65;0.70;;;;;;;;;;5000278;28;20076;-73
2022/01/04 09:39:11;;;;;;;6.50;1.20;;;;;;;;;;5007673;28;20044;-73
2022/01/04 09:41:37;;;;;;;3.38;0.55;;;;;;;;;;4999746;28;20388;-73
2022/01/04 09:44:04;;;;;;;6.82;0.50;;;;;;;;;;5002159;28;20087;-73
2022/01/04 09:46:30;;;;;;;5.90;1.15;;;;;;;;;;5010377;28;20022;-73
2022/01/04 09:48:56;;;;;;;6.80;0.90;;;;;;;;;;5011111;28;20031;-73
2022/01/04 09:51:23;;;;;;;5.78;0.82;;;;;;;;;;4989664;28;20042;-73
2022/01/04 09:53:49;;;;;;;6.25;1.45;;;;;;;;;;5004567;28;20030;-73
2022/01/04 09:56:15;;;;;;;6.72;0.98;;;;;;;;;;5010123;28;20042;-73
2022/01/04 09:58:41;;;;;;;12.90;1.48;;;;;;;;;;5006572;28;20041;-73
2022/01/04 10:01:17;;;;;;;3.67;0.70;;;;;;;;;;5010740;28;20061;-73
2022/01/04 10:03:43;;;;;;;7.13;0.90;;;;;;;;;;5006924;28;20089;-73
2022/01/04 10:06:16;;;;;;;5.47;1.67;;;;;;;;;;5005446;28;20061;-73
2022/01/04 10:08:51;;;;;;;8.40;1.08;;;;;;;;;;5010330;28;20034;-73
2022/01/04 10:11:28;;;;;;;6.75;1.17;;;;;;;;;;5004768;28;20035;-73
2022/01/04 10:13:54;;;;;;;5.88;1.20;;;;;;;;;;5013450;28;20487;-73
2022/01/04 10:16:20;;;;;;;7.55;1.55;;;;;;;;;;4984427;28;20030;-73
2022/01/04 10:18:47;;;;;;;6.90;1.27;;;;;;;;;;5015037;28;20041;-73
2022/01/04 10:21:15;;;;;;;3.80;0.75;;;;;;;;;;5007069;28;20064;-73
2022/01/04 10:23:49;;;;;;;3.72;0.55;;;;;;;;;;5009782;28;20129;-73
2022/01/04 10:26:16;;;;;;;8.93;0.60;;;;;;;;;;5005730;28;20045;-73
2022/01/04 10:28:43;;;;;;;4.28;0.60;;;;;;;;;;5014895;28;20057;-73
2022/01/04 10:31:11;;;;;;;3.53;1.15;;;;;;;;;;5008912;28;20097;-73
2022/01/04 10:33:38;;;;;;;4.57;0.50;;;;;;;;;;4988964;28;20031;-72
2022/01/04 10:36:11;;;;;;;5.50;0.80;;;;;;;;;;4990366;28;20042;-73
2022/01/04 10:38:38;;;;;;;2.35;0.60;;;;;;;;;;4995909;28;20038;-73
2022/01/04 10:41:04;;;;;;;5.25;0.75;;;;;;;;;;5017409;28;20029;-73
2022/01/04 10:43:43;;;;;;;4.78;0.40;;;;;;;;;;5007451;28;20073;-73
2022/01/04 10:46:10;;;;;;;4.03;0.57;;;;;;;;;;5007477;28;20148;-73
2022/01/04 10:48:39;;;;;;;4.15;1.08;;;;;;;;;;5010653;28;20641;-73
2022/01/04 10:51:08;;;;;;;3.88;0.52;;;;;;;;;;5006601;28;20026;-73
2022/01/04 10:53:39;;;;;;;4.55;0.57;;;;;;;;;;5010828;28;20171;-73
2022/01/04 10:56:07;;;;;;;4.28;0.50;;;;;;;;;;5000287;28;20029;-73
2022/01/04 10:58:35;;;;;;;1.95;0.60;;;;;;;;;;5008637;28;20030;-73
2022/01/04 11:01:03;;;;;;;4.15;0.30;;;;;;;;;;5004351;28;20475;-73
2022/01/04 11:03:31;;;;;;;6.70;0.73;;;;;;;;;;5010178;28;20033;-73
2022/01/04 11:05:59;;;;;;;8.52;0.80;;;;;;;;;;5003779;28;20021;-73
2022/01/04 11:08:25;;;;;;;3.88;0.90;;;;;;;;;;5007487;28;20018;-73
2022/01/04 11:10:53;;;;;;;7.90;0.70;;;;;;;;;;5003961;28;20040;-73
2022/01/04 11:13:19;;;;;;;6.30;0.73;;;;;;;;;;5001888;28;21493;-73
2022/01/04 11:15:45;;;;;;;6.78;0.70;;;;;;;;;;5005621;28;20030;-73
2022/01/04 11:18:11;;;;;;;7.57;0.80;;;;;;;;;;4991698;28;20037;-73
2022/01/04 11:20:40;;;;;;;6.07;0.85;;;;;;;;;;5003284;28;20034;-73
2022/01/04 11:23:06;;;;;;;8.38;0.68;;;;;;;;;;5004867;28;20406;-73
2022/01/04 11:25:33;;;;;;;2.40;0.60;;;;;;;;;;5008779;28;20037;-73
2022/01/04 11:28:01;;;;;;;6.60;0.57;;;;;;;;;;5003493;28;20022;-73
2022/01/04 11:30:39;;;;;;;9.27;1.42;;;;;;;;;;5018478;28;20023;-73
2022/01/04 11:33:35;;;;;;;4.00;0.52;;;;;;;;;;5004552;28;20038;-73
2022/01/04 11:36:02;;;;;;;5.53;0.70;;;;;;;;;;4930640;28;20102;-73
2022/01/04 11:38:36;;;;;;;9.68;0.90;;;;;;;;;;5009749;28;20105;-73
2022/01/04 11:41:03;;;;;;;7.20;1.25;;;;;;;;;;4983427;28;20038;-73
2022/01/04 11:43:38;;;;;;;8.95;1.25;;;;;;;;;;4990310;28;20022;-74
2022/01/04 11:46:04;;;;;;;2.17;0.55;;;;;;;;;;5002367;28;20076;-73
2022/01/04 11:48:33;;;;;;;9.95;2.05;;;;;;;;;;5008275;28;20033;-73
2022/01/04 11:51:04;;;;;;;6.97;0.93;;;;;;;;;;5005418;28;20025;-73
2022/01/04 11:53:31;;;;;;;8.55;1.50;;;;;;;;;;4989012;28;20073;-73
2022/01/04 11:56:00;;;;;;;16.42;1.58;;;;;;;;;;4975937;28;20660;-73
2022/01/04 11:58:27;;;;;;;5.65;0.73;;;;;;;;;;4999099;28;20022;-73
2022/01/04 12:01:03;;;;;;;3.90;0.40;;;;;;;;;;5008076;28;20057;-73
2022/01/04 12:03:43;;;;;;;6.40;1.05;;;;;;;;;;5001591;28;20092;-73
2022/01/04 12:06:10;;;;;;;9.00;1.00;;;;;;;;;;5001637;28;20060;-73
2022/01/04 12:08:37;;;;;;;4.22;0.50;;;;;;;;;;5000519;28;20018;-73
2022/01/04 12:11:03;;;;;;;3.95;0.88;;;;;;;;;;4995176;28;20462;-73
2022/01/04 12:14:03;;;;;;;8.52;0.75;;;;;;;;;;4995860;28;20030;-73
2022/01/04 12:16:36;;;;;;;5.65;0.60;;;;;;;;;;4979657;28;20045;-73
2022/01/04 12:19:04;;;;;;;5.63;0.80;;;;;;;;;;4994768;28;20030;-73
2022/01/04 12:21:49;;;;;;;1.95;0.60;;;;;;;;;;5000420;28;20018;-73
2022/01/04 12:24:18;;;;;;;9.40;0.80;;;;;;;;;;5003398;28;20050;-73
2022/01/04 12:26:44;;;;;;;5.05;0.90;;;;;;;;;;5000084;28;20022;-74
2022/01/04 12:29:10;;;;;;;5.47;1.00;;;;;;;;;;4994522;28;20076;-73
2022/01/04 12:31:44;;;;;;;7.22;1.60;;;;;;;;;;5009945;28;20438;-73
2022/01/04 12:34:30;;;;;;;7.43;0.88;;;;;;;;;;5001663;28;20137;-73
2022/01/04 12:36:57;;;;;;;6.75;1.25;;;;;;;;;;5005912;28;20060;-73
2022/01/04 12:39:32;;;;;;;10.65;1.13;;;;;;;;;;5002768;28;20083;-73
2022/01/04 12:41:58;;;;;;;8.20;1.23;;;;;;;;;;5001578;28;20030;-73
2022/01/04 12:44:25;;;;;;;5.72;1.00;;;;;;;;;;5008274;28;20058;-73
2022/01/04 12:46:51;;;;;;;7.65;0.70;;;;;;;;;;4988117;28;20026;-73
2022/01/04 12:49:18;;;;;;;10.45;1.15;;;;;;;;;;5007673;28;20030;-73
2022/01/04 12:51:50;;;;;;;10.75;1.08;;;;;;;;;;5001676;28;20419;-73
2022/01/04 12:54:20;;;;;;;9.50;1.27;;;;;;;;;;5007903;28;20454;-73
2022/01/04 12:56:46;;;;;;;7.10;0.55;;;;;;;;;;5000318;28;20034;-73
2022/01/04 12:59:33;;;;;;;11.95;1.58;;;;;;;;;;5004911;28;20042;-73
2022/01/04 13:02:20;;;;;;;5.80;0.63;;;;;;;;;;5000976;28;20081;-73
2022/01/04 13:04:50;;;;;;;11.27;1.52;;;;;;;;;;4988382;28;20042;-73
2022/01/04 13:07:21;;;;;;;5.05;1.17;;;;;;;;;;5005366;28;20037;-73
2022/01/04 13:09:51;;;;;;;3.85;0.57;;;;;;;;;;5000568;28;20034;-73
2022/01/04 13:12:20;;;;;;;7.72;0.88;;;;;;;;;;4986531;28;20365;-73
2022/01/04 13:14:46;;;;;;;6.43;0.95;;;;;;;;;;5002843;28;20014;-73
2022/01/04 13:17:13;;;;;;;7.28;0.75;;;;;;;;;;5004569;28;20696;-73
2022/01/04 13:19:41;;;;;;;5.35;0.60;;;;;;;;;;5004672;28;20105;-73
2022/01/04 13:22:10;;;;;;;7.15;1.42;;;;;;;;;;5002649;28;20120;-73
2022/01/04 13:24:40;;;;;;;6.00;0.65;;;;;;;;;;5006079;28;20116;-73
2022/01/04 13:27:31;;;;;;;8.00;0.50;;;;;;;;;;5001978;28;20049;-73
2022/01/04 13:30:06;;;;;;;6.22;1.25;;;;;;;;;;4987843;28;20511;-73
2022/01/04 13:32:34;;;;;;;3.75;0.80;;;;;;;;;;5002017;28;20034;-73
2022/01/04 13:35:02;;;;;;;6.47;1.15;;;;;;;;;;5006668;28;20026;-73
2022/01/04 13:37:29;;;;;;;6.68;1.02;;;;;;;;;;4984890;28;20120;-73
2022/01/04 13:39:55;;;;;;;7.68;2.15;;;;;;;;;;4984823;28;20030;-72
2022/01/04 13:42:39;;;;;;;10.05;0.98;;;;;;;;;;4999119;28;20042;-71
2022/01/04 13:45:08;;;;;;;5.35;0.93;;;;;;;;;;4994698;28;20046;-72
2022/01/04 13:47:38;;;;;;;4.75;0.75;;;;;;;;;;5004795;28;20475;-71
2022/01/04 13:50:08;;;;;;;3.08;0.50;;;;;;;;;;5000498;28;20044;-72
2022/01/04 13:52:34;;;;;;;10.65;1.77;;;;;;;;;;5006849;28;20496;-72
2022/01/04 13:55:05;;;;;;;13.68;1.13;;;;;;;;;;5000190;28;20026;-72
2022/01/04 13:57:31;;;;;;;6.15;1.90;;;;;;;;;;4980201;28;20075;-72
2022/01/04 13:59:58;;;;;;;6.15;1.10;;;;;;;;;;5001370;28;20045;-71
2022/01/04 14:02:28;;;;;;;10.55;1.08;;;;;;;;;;5001069;28;20030;-72
2022/01/04 14:05:17;;;;;;;8.10;2.03;;;;;;;;;;5004259;28;20391;-71
2022/01/04 14:07:53;;;;;;;5.32;0.98;;;;;;;;;;4998199;28;20045;-72
2022/01/04 14:10:39;;;;;;;9.18;1.55;;;;;;;;;;5006869;28;20061;-72
2022/01/04 14:13:06;;;;;;;14.38;1.27;;;;;;;;;;4998774;28;20030;-72
2022/01/04 14:15:32;;;;;;;5.95;2.10;;;;;;;;;;5006766;28;20045;-72
2022/01/04 14:18:10;;;;;;;8.50;1.50;;;;;;;;;;5002070;28;20042;-72
2022/01/04 14:20:54;;;;;;;5.18;1.10;;;;;;;;;;5003042;28;20062;-72
2022/01/04 14:23:33;;;;;;;8.32;1.38;;;;;;;;;;5004434;28;20046;-72
2022/01/04 14:26:06;;;;;;;4.65;0.90;;;;;;;;;;5000221;28;20038;-72
2022/01/04 14:28:33;;;;;;;7.25;0.57;;;;;;;;;;5004010;28;20022;-72
2022/01/04 14:30:59;;;;;;;6.72;1.35;;;;;;;;;;5002437;28;20396;-72
2022/01/04 14:33:25;;;;;;;10.90;0.95;;;;;;;;;;4968799;28;20465;-73
2022/01/04 14:35:51;;;;;;;6.82;1.48;;;;;;;;;;4986971;28;20031;-72
2022/01/04 14:38:17;;;;;;;9.45;1.98;;;;;;;;;;4995182;28;20078;-72
2022/01/04 14:40:43;;;;;;;15.52;1.80;;;;;;;;;;5006973;28;20045;-72
2022/01/04 14:43:10;;;;;;;9.73;1.30;;;;;;;;;;4998762;28;20053;-72
2022/01/04 14:45:36;;;;;;;7.10;2.40;;;;;;;;;;5008162;28;20034;-72
2022/01/04 14:48:02;;;;;;;6.45;1.95;;;;;;;;;;4984207;28;20057;-72
2022/01/04 14:50:29;;;;;;;9.77;2.17;;;;;;;;;;4989879;28;20415;-72